Malta, Texas
Current Conditions -  °F | °C
As of 3:53 AM on Saturday 01 Nov 2014 (Local Time) from KTXK Reporting Station
Clear Clear  
Wind Chill: 32°   Ceiling: Unl
Heat Index: 36°   Visibility: 10mi
Dew Point: 28°   Wind: 5mph
Humidity: 73%   Direction: 60°ENE
Pressure: 30.39"   Gusts: NA
Location:  33.4799°N, 94.4582°W
Report Text: KTXK 010853Z AUTO 06004KT 10SM CLR 02/M02 A3039 RMK AO2 SLP289 T00221022 51008
Loading
Personal Weather Stations






























Interactive Weather Map
Tropical Storm Tracking
New forecast layout! Learn more

10-Day Weather Forecast

Advertisements
Track Severe Weather on mobile